RYR8AU ZZZZ-EBCI
Flight info
| Callsign | RYR8AU |
|---|---|
| Flight time | N/A |
| Altitude | 38000 |
| Route | DCT |
| Aircraft | B738/M-VGD/A |
Departure
| Time | N/A |
|---|---|
| Airport | ZZZZ |
Arrival
| Time | 2026-04-29 10:31 |
|---|---|
| Airport | Brussels South Charleroi Airport (EBCI) |
| Time | Latitude | Longitude | Altitude | Speed | Heading |
|---|---|---|---|---|---|
| 2026-04-29 10:22 | 50.59047 | 4.37818 | 7999 ft | 265 kts | 148° |
| 2026-04-29 10:22 | 50.57415 | 4.39168 | 7737 ft | 265 kts | 148° |
| 2026-04-29 10:22 | 50.55777 | 4.40535 | 7396 ft | 267 kts | 148° |
| 2026-04-29 10:22 | 50.54126 | 4.41904 | 7075 ft | 269 kts | 148° |
| 2026-04-29 10:23 | 50.52422 | 4.43126 | 6726 ft | 273 kts | 161° |
| 2026-04-29 10:23 | 50.50505 | 4.43227 | 6423 ft | 283 kts | 187° |
| 2026-04-29 10:23 | 50.48705 | 4.41913 | 6072 ft | 292 kts | 217° |
| 2026-04-29 10:23 | 50.47498 | 4.39369 | 5820 ft | 295 kts | 249° |
| 2026-04-29 10:24 | 50.47193 | 4.36214 | 5443 ft | 296 kts | 272° |
| 2026-04-29 10:24 | 50.47356 | 4.33019 | 5217 ft | 288 kts | 275° |
| 2026-04-29 10:24 | 50.47540 | 4.29917 | 5005 ft | 281 kts | 275° |
| 2026-04-29 10:24 | 50.47524 | 4.26931 | 4839 ft | 267 kts | 253° |
| 2026-04-29 10:25 | 50.46876 | 4.24307 | 4764 ft | 254 kts | 243° |
| 2026-04-29 10:25 | 50.46148 | 4.21844 | 4636 ft | 242 kts | 239° |
| 2026-04-29 10:25 | 50.45137 | 4.19916 | 4427 ft | 226 kts | 207° |
| 2026-04-29 10:25 | 50.43714 | 4.19062 | 4262 ft | 219 kts | 180° |
| 2026-04-29 10:26 | 50.42221 | 4.19185 | 4035 ft | 213 kts | 160° |
| 2026-04-29 10:26 | 50.40931 | 4.20159 | 3814 ft | 202 kts | 130° |
| 2026-04-29 10:26 | 50.40383 | 4.22066 | 3498 ft | 187 kts | 89° |
| 2026-04-29 10:26 | 50.40447 | 4.24031 | 3293 ft | 176 kts | 88° |
| 2026-04-29 10:27 | 50.40947 | 4.27460 | 2902 ft | 151 kts | 73° |
| 2026-04-29 10:27 | 50.41292 | 4.28957 | 2765 ft | 145 kts | 70° |
| 2026-04-29 10:27 | 50.41696 | 4.30453 | 2509 ft | 153 kts | 70° |
| 2026-04-29 10:28 | 50.42169 | 4.31943 | 2266 ft | 154 kts | 67° |
| 2026-04-29 10:28 | 50.42562 | 4.33400 | 2137 ft | 140 kts | 69° |
| 2026-04-29 10:28 | 50.42928 | 4.34703 | 1926 ft | 125 kts | 66° |
| 2026-04-29 10:28 | 50.43272 | 4.35883 | 1856 ft | 120 kts | 65° |
| 2026-04-29 10:29 | 50.43623 | 4.37074 | 1538 ft | 119 kts | 68° |
| 2026-04-29 10:29 | 50.43935 | 4.38215 | 1429 ft | 109 kts | 67° |
| 2026-04-29 10:29 | 50.44252 | 4.39354 | 1262 ft | 115 kts | 64° |
| 2026-04-29 10:29 | 50.44605 | 4.40516 | 1091 ft | 127 kts | 64° |
| 2026-04-29 10:30 | 50.44968 | 4.41782 | 1033 ft | 126 kts | 66° |
| 2026-04-29 10:30 | 50.45328 | 4.43008 | 779 ft | 121 kts | 65° |
| 2026-04-29 10:30 | 50.45669 | 4.44191 | 639 ft | 118 kts | 65° |
| 2026-04-29 10:30 | 50.45978 | 4.45253 | 620 ft | 89 kts | 65° |
| 2026-04-29 10:31 | 50.46177 | 4.45930 | 616 ft | 54 kts | 65° |
| 2026-04-29 10:31 | 50.46314 | 4.46412 | 614 ft | 44 kts | 66° |
| 2026-04-29 10:31 | 50.46418 | 4.46774 | 616 ft | 23 kts | 65° |
| 2026-04-29 10:31 | 50.46514 | 4.46894 | 612 ft | 12 kts | 355° |
| 2026-04-29 10:32 | 50.46525 | 4.46888 | 612 ft | 6 kts | 338° |
| 2026-04-29 10:32 | 50.46577 | 4.46839 | 615 ft | 10 kts | 331° |
| 2026-04-29 10:32 | 50.46641 | 4.46799 | 616 ft | 10 kts | 340° |
| 2026-04-29 10:32 | 50.46702 | 4.46800 | 621 ft | 10 kts | 43° |
| 2026-04-29 10:33 | 50.46732 | 4.46893 | 621 ft | 10 kts | 64° |
| 2026-04-29 10:33 | 50.46778 | 4.47047 | 618 ft | 18 kts | 65° |
| 2026-04-29 10:33 | 50.46836 | 4.47219 | 616 ft | 18 kts | 49° |
| 2026-04-29 10:33 | 50.46893 | 4.47383 | 620 ft | 15 kts | 66° |
| 2026-04-29 10:34 | 50.46925 | 4.47442 | 616 ft | 2 kts | 358° |
| 2026-04-29 10:34 | 50.46936 | 4.47420 | 617 ft | 3 kts | 311° |
| 2026-04-29 10:34 | 50.46954 | 4.47403 | 618 ft | 3 kts | 334° |
| 2026-04-29 10:34 | 50.46959 | 4.47399 | 622 ft | 0 kts | 334° |